Time;durP1;ratioP1;P1;durP2;ratioP2;P2;SDS_P1;SDS_P2;PMS_P1;PMS_P2;Temp;Humidity;BMP_temperature;BMP_pressure;BME280_temperature;BME280_humidity;BME280_pressure;Samples;Min_cycle;Max_cycle;Signal;HPM_P1;HPM_P2
2021/12/31 00:01:32;;;;;;;27.10;20.50;;;;;;;2.75;85.65;97909.81;107697;1270;70922;-67
2021/12/31 00:04:01;;;;;;;30.70;20.90;;;;;;;2.77;85.55;97913.35;107798;1267;68122;-69
2021/12/31 00:06:31;;;;;;;32.20;23.10;;;;;;;2.79;85.44;97909.49;107693;1270;70094;-68
2021/12/31 00:09:00;;;;;;;;;;;;;;;2.81;85.46;97909.08;107786;1267;59054;-68
2021/12/31 00:11:30;;;;;;;26.70;20.30;;;;;;;2.83;85.28;97919.36;107932;1266;58844;-66
2021/12/31 00:13:59;;;;;;;27.40;19.90;;;;;;;2.85;85.19;97925.48;107855;1270;70110;-69
2021/12/31 00:16:28;;;;;;;22.10;16.10;;;;;;;2.86;85.08;97925.79;107852;1267;67961;-68
2021/12/31 00:18:57;;;;;;;23.60;17.40;;;;;;;2.88;85.00;97929.53;107632;1270;68869;-69
2021/12/31 00:21:32;;;;;;;28.40;18.30;;;;;;;2.89;85.00;97933.27;107833;1267;58916;-69
2021/12/31 00:24:02;;;;;;;38.00;25.30;;;;;;;2.91;85.06;97934.92;107753;1270;59012;-69
2021/12/31 00:26:31;;;;;;;23.60;14.40;;;;;;;2.92;85.02;97931.27;107742;1269;70063;-68
2021/12/31 00:29:00;;;;;;;29.90;22.80;;;;;;;2.94;84.83;97932.58;107625;1270;69061;-68
2021/12/31 00:31:29;;;;;;;49.50;31.50;;;;;;;2.94;85.08;97930.17;107721;1267;68820;-69
2021/12/31 00:33:58;;;;;;;47.20;29.90;;;;;;;2.91;85.42;97930.60;107782;1267;58871;-68
2021/12/31 00:36:45;;;;;;;37.20;26.30;;;;;;;2.90;85.65;97939.79;107688;1270;58956;-69
2021/12/31 00:39:15;;;;;;;25.10;15.70;;;;;;;2.89;85.60;97934.83;107831;1270;70615;-69
2021/12/31 00:41:46;;;;;;;;;;;;;;;2.92;84.93;97907.88;107783;1270;67834;-68
2021/12/31 00:44:15;;;;;;;42.00;26.70;;;;;;;2.93;84.95;97901.81;107733;1271;69585;-69
2021/12/31 00:46:47;;;;;;;39.10;24.90;;;;;;;2.85;85.54;97914.64;107794;1267;58900;-68
2021/12/31 00:49:16;;;;;;;46.10;30.40;;;;;;;2.81;85.53;97921.83;107828;1269;58919;-68
2021/12/31 00:51:45;;;;;;;47.90;29.60;;;;;;;2.78;85.87;97920.38;107851;1267;70853;-68
2021/12/31 00:54:14;;;;;;;37.10;23.50;;;;;;;2.77;85.88;97913.52;107860;1267;67893;-68
2021/12/31 00:56:44;;;;;;;34.70;22.90;;;;;;;2.76;85.72;97903.05;107794;1267;68688;-69
2021/12/31 00:59:13;;;;;;;22.80;13.20;;;;;;;2.77;85.60;97902.17;107889;1267;58807;-68
2021/12/31 01:01:42;;;;;;;33.30;22.80;;;;;;;2.79;85.23;97899.68;107959;1270;58836;-68
2021/12/31 01:04:12;;;;;;;;;;;;;;;2.80;85.05;97900.51;107811;1267;69987;-68
2021/12/31 01:06:41;;;;;;;32.00;20.50;;;;;;;2.81;85.31;97904.62;107820;1268;68549;-69
2021/12/31 01:09:10;;;;;;;47.20;30.00;;;;;;;2.82;85.31;97913.88;107878;1270;69535;-68
2021/12/31 01:11:42;;;;;;;32.80;21.90;;;;;;;2.84;85.20;97922.77;107864;1269;58898;-69
2021/12/31 01:14:22;;;;;;;31.90;21.30;;;;;;;2.84;85.27;97921.38;107817;1268;58912;-69
2021/12/31 01:16:57;;;;;;;;;;;;;;;2.84;85.59;97931.55;107940;1267;70814;-69
2021/12/31 01:21:57;;;;;;;29.30;18.40;;;;;;;2.82;85.77;97934.70;107815;1270;68462;-68
2021/12/31 01:24:28;;;;;;;37.90;25.30;;;;;;;2.81;85.56;97938.52;107905;1269;58926;-69
2021/12/31 01:26:57;;;;;;;43.00;27.00;;;;;;;2.80;85.76;97933.19;107710;1269;58874;-69
2021/12/31 01:29:26;;;;;;;39.00;24.20;;;;;;;2.79;85.93;97939.27;107793;1270;70996;-69
2021/12/31 01:31:56;;;;;;;28.60;18.70;;;;;;;2.78;86.22;97938.45;107850;1270;68494;-67
2021/12/31 01:34:25;;;;;;;26.30;18.80;;;;;;;2.80;85.74;97935.61;107780;1266;68476;-69
2021/12/31 01:36:55;;;;;;;29.80;17.80;;;;;;;2.83;85.78;97928.16;107755;1269;58882;-68
2021/12/31 01:39:28;;;;;;;27.00;16.50;;;;;;;2.84;85.58;97920.73;107673;1270;58854;-68
2021/12/31 01:41:59;;;;;;;25.90;15.60;;;;;;;2.85;85.17;97918.41;107837;1267;70685;-69
2021/12/31 01:44:36;;;;;;;26.20;15.50;;;;;;;2.85;85.25;97919.45;107860;1268;68012;-68
2021/12/31 01:47:13;;;;;;;24.80;16.90;;;;;;;2.85;85.20;97917.38;107655;1269;69348;-69
2021/12/31 01:49:55;;;;;;;26.80;15.30;;;;;;;2.85;85.12;97922.20;107905;1270;58860;-69
2021/12/31 01:52:25;;;;;;;23.10;16.50;;;;;;;2.85;85.40;97931.66;107833;1267;58876;-69
2021/12/31 01:54:54;;;;;;;26.70;18.00;;;;;;;2.87;85.34;97937.83;107821;1267;70810;-67
2021/12/31 01:57:25;;;;;;;37.70;24.20;;;;;;;2.87;85.61;97938.84;107878;1267;67909;-69
2021/12/31 01:59:54;;;;;;;26.60;17.60;;;;;;;2.85;86.20;97935.13;107865;1267;69271;-69
2021/12/31 02:02:24;;;;;;;22.70;15.70;;;;;;;2.85;85.78;97928.76;107843;1267;58917;-67
2021/12/31 02:04:55;;;;;;;25.80;18.10;;;;;;;2.86;85.73;97928.02;107789;1267;58791;-69
2021/12/31 02:07:24;;;;;;;;;;;;;;;2.88;85.66;97917.66;107929;1267;70053;-67
2021/12/31 02:09:54;;;;;;;19.10;12.70;;;;;;;2.90;85.44;97916.02;107828;1270;67640;-68
2021/12/31 02:12:23;;;;;;;29.10;18.20;;;;;;;2.90;85.06;97918.23;107750;1270;68616;-67
2021/12/31 02:14:53;;;;;;;32.40;21.90;;;;;;;2.91;85.13;97915.65;107851;1270;58896;-69
2021/12/31 02:17:22;;;;;;;35.10;20.30;;;;;;;2.89;85.64;97908.82;107843;1267;58913;-67
2021/12/31 02:20:00;;;;;;;33.10;21.00;;;;;;;2.89;85.35;97903.48;107791;1270;70631;-66
2021/12/31 02:22:30;;;;;;;24.50;14.80;;;;;;;2.87;85.44;97904.24;107671;1270;68598;-66
2021/12/31 02:25:01;;;;;;;30.50;19.00;;;;;;;2.86;85.34;97902.89;107796;1270;68471;-68
2021/12/31 02:27:34;;;;;;;35.40;21.00;;;;;;;2.85;85.09;97897.39;107842;1267;58866;-69
2021/12/31 02:30:07;;;;;;;42.60;27.00;;;;;;;2.83;85.89;97896.46;107808;1270;58855;-67
2021/12/31 02:32:37;;;;;;;28.20;18.50;;;;;;;2.82;86.02;97890.14;107927;1267;69363;-66
2021/12/31 02:35:08;;;;;;;;;;;;;;;2.80;86.31;97893.09;107906;1264;69319;-66
2021/12/31 02:37:37;;;;;;;28.50;19.50;;;;;;;2.80;86.71;97894.48;107889;1266;69460;-67
2021/12/31 02:40:11;;;;;;;19.90;14.00;;;;;;;2.80;86.48;97894.14;107746;1270;58907;-67
2021/12/31 02:42:42;;;;;;;43.80;25.40;;;;;;;2.80;86.59;97889.13;107942;1267;58857;-66
2021/12/31 02:45:13;;;;;;;29.70;20.40;;;;;;;2.80;86.73;97891.89;107659;1271;70641;-66
2021/12/31 02:47:45;;;;;;;33.40;22.20;;;;;;;2.83;86.47;97887.36;107651;1269;68040;-66
2021/12/31 02:50:18;;;;;;;32.90;21.80;;;;;;;2.85;86.34;97879.87;107859;1269;69490;-66
2021/12/31 02:52:48;;;;;;;26.70;17.40;;;;;;;2.87;86.15;97879.46;107866;1267;58934;-68
2021/12/31 02:55:18;;;;;;;27.90;17.60;;;;;;;2.89;86.05;97877.48;107764;1267;58894;-67
2021/12/31 02:57:47;;;;;;;20.10;14.00;;;;;;;2.91;86.11;97869.66;107791;1269;68835;-67
2021/12/31 03:00:18;;;;;;;17.20;11.20;;;;;;;2.93;85.96;97866.33;107877;1267;67651;-69
2021/12/31 03:02:49;;;;;;;28.10;18.80;;;;;;;2.93;85.97;97866.83;107913;1266;69486;-69
2021/12/31 03:05:20;;;;;;;19.30;12.50;;;;;;;2.94;85.96;97862.32;107749;1268;58862;-68
2021/12/31 03:07:51;;;;;;;26.60;17.40;;;;;;;2.95;85.74;97870.21;107745;1270;58826;-67
2021/12/31 03:10:21;;;;;;;;;;;;;;;2.96;86.03;97871.90;107809;1267;70004;-68
2021/12/31 03:12:51;;;;;;;17.40;13.00;;;;;;;2.97;85.93;97874.29;107729;1270;67863;-67
2021/12/31 03:15:22;;;;;;;;;;;;;;;2.99;85.76;97871.80;107917;1267;68787;-69
2021/12/31 03:17:57;;;;;;;18.70;12.40;;;;;;;3.00;85.77;97871.59;107891;1266;58930;-69
2021/12/31 03:20:36;;;;;;;16.30;10.90;;;;;;;3.01;85.72;97871.88;107854;1269;58896;-67
2021/12/31 03:23:06;;;;;;;15.60;9.90;;;;;;;3.02;85.65;97868.75;107820;1270;69913;-67
2021/12/31 03:25:36;;;;;;;16.60;11.20;;;;;;;3.04;85.52;97867.48;107721;1268;68715;-68
2021/12/31 03:28:06;;;;;;;15.80;11.00;;;;;;;3.05;85.39;97872.95;107758;1267;68617;-68
2021/12/31 03:30:35;;;;;;;18.10;12.90;;;;;;;3.05;85.41;97874.52;107732;1269;59199;-69
2021/12/31 03:33:04;;;;;;;16.80;12.50;;;;;;;3.06;85.41;97875.67;107794;1267;58785;-66
2021/12/31 03:35:34;;;;;;;17.20;11.50;;;;;;;3.08;85.49;97875.95;107864;1266;70181;-68
2021/12/31 03:38:04;;;;;;;13.10;8.70;;;;;;;3.10;85.34;97878.30;107814;1269;68450;-67
2021/12/31 03:40:34;;;;;;;32.10;20.50;;;;;;;3.11;85.37;97880.52;107806;1270;69441;-68
2021/12/31 03:43:04;;;;;;;20.80;13.30;;;;;;;3.11;85.65;97881.54;107816;1267;58882;-68
2021/12/31 03:45:34;;;;;;;23.00;14.60;;;;;;;3.12;85.46;97879.60;107900;1266;58848;-69
2021/12/31 03:48:04;;;;;;;20.00;14.10;;;;;;;3.11;85.57;97880.00;107856;1267;70691;-68
2021/12/31 03:50:34;;;;;;;21.80;13.70;;;;;;;3.12;85.49;97880.33;107730;1269;67831;-68
2021/12/31 03:53:04;;;;;;;15.60;11.90;;;;;;;3.13;85.52;97878.20;107618;1270;69402;-68
2021/12/31 03:55:33;;;;;;;21.60;15.50;;;;;;;3.14;85.49;97877.98;107905;1268;58935;-67
2021/12/31 03:58:03;;;;;;;22.20;15.20;;;;;;;3.14;85.56;97876.41;107883;1268;58884;-69
2021/12/31 04:00:32;;;;;;;18.80;12.80;;;;;;;3.16;85.44;97871.73;107982;1267;68926;-69
2021/12/31 04:03:11;;;;;;;16.40;12.50;;;;;;;3.17;85.35;97869.80;107912;1268;68429;-68
2021/12/31 04:05:42;;;;;;;18.40;12.40;;;;;;;3.18;85.28;97874.55;107838;1267;68452;-67
2021/12/31 04:08:11;;;;;;;14.90;9.70;;;;;;;3.20;85.17;97872.79;107829;1267;58940;-69
2021/12/31 04:10:41;;;;;;;16.10;10.20;;;;;;;3.20;84.98;97865.73;107823;1267;58871;-68
2021/12/31 04:13:10;;;;;;;19.80;12.80;;;;;;;3.19;85.08;97864.02;107868;1265;70670;-67
2021/12/31 04:15:40;;;;;;;23.40;14.70;;;;;;;3.19;84.85;97861.27;107820;1267;67823;-67
2021/12/31 04:18:09;;;;;;;16.30;10.60;;;;;;;3.17;84.98;97862.71;107676;1267;68844;-68
2021/12/31 04:20:42;;;;;;;22.00;13.30;;;;;;;3.17;84.94;97856.03;107839;1267;58926;-69
2021/12/31 04:23:28;;;;;;;19.80;14.10;;;;;;;3.15;85.02;97856.43;107878;1269;58864;-67
2021/12/31 04:25:58;;;;;;;30.80;20.80;;;;;;;3.14;85.26;97855.59;107734;1269;70596;-66
2021/12/31 04:28:29;;;;;;;30.90;19.00;;;;;;;3.14;85.22;97856.11;107822;1267;68596;-67
2021/12/31 04:30:58;;;;;;;23.70;15.60;;;;;;;3.14;85.32;97863.52;107850;1267;68480;-67
2021/12/31 04:33:28;;;;;;;29.80;19.20;;;;;;;3.15;85.43;97863.84;107812;1267;58873;-68
2021/12/31 04:35:57;;;;;;;28.00;17.50;;;;;;;3.15;85.42;97863.67;107864;1267;58856;-66
2021/12/31 04:38:27;;;;;;;22.20;14.30;;;;;;;3.15;85.52;97863.83;107834;1270;70773;-67
2021/12/31 04:40:56;;;;;;;20.40;13.90;;;;;;;3.16;85.55;97863.13;107901;1267;68386;-67
2021/12/31 04:43:26;;;;;;;25.70;15.90;;;;;;;3.16;85.55;97864.84;107790;1267;68514;-66
2021/12/31 04:45:55;;;;;;;21.40;13.30;;;;;;;3.14;85.70;97868.67;107789;1269;58930;-67
2021/12/31 04:48:24;;;;;;;25.50;14.00;;;;;;;3.15;85.49;97864.36;107777;1267;58935;-66
2021/12/31 04:50:53;;;;;;;17.10;10.90;;;;;;;3.15;85.38;97854.70;107743;1268;69619;-66
2021/12/31 04:53:23;;;;;;;18.30;12.20;;;;;;;3.15;85.24;97852.98;107835;1267;68782;-69
2021/12/31 04:55:53;;;;;;;23.20;14.00;;;;;;;3.15;85.30;97856.09;107766;1270;69419;-69
2021/12/31 04:58:22;;;;;;;18.50;11.50;;;;;;;3.13;85.41;97856.69;107836;1267;58932;-68
2021/12/31 05:00:51;;;;;;;21.40;14.90;;;;;;;3.13;85.45;97857.00;107872;1267;58941;-68
2021/12/31 05:03:20;;;;;;;13.10;8.50;;;;;;;3.14;85.56;97856.46;107870;1269;69302;-69
2021/12/31 05:05:50;;;;;;;20.30;13.00;;;;;;;3.14;85.69;97852.49;107699;1269;68548;-68
2021/12/31 05:08:19;;;;;;;22.30;14.80;;;;;;;3.14;85.28;97850.79;107781;1269;68736;-68
2021/12/31 05:10:48;;;;;;;24.10;15.10;;;;;;;3.14;85.25;97849.56;107746;1268;58922;-70
2021/12/31 05:13:19;;;;;;;22.90;14.50;;;;;;;3.13;85.33;97847.18;107787;1267;58855;-68
2021/12/31 05:15:51;;;;;;;21.80;13.50;;;;;;;3.13;85.18;97847.52;107831;1269;70617;-69
2021/12/31 05:18:20;;;;;;;25.20;15.60;;;;;;;3.13;85.37;97847.73;107820;1269;68630;-69
2021/12/31 05:20:53;;;;;;;26.00;15.60;;;;;;;3.11;85.70;97852.43;107830;1267;68779;-69
2021/12/31 05:23:22;;;;;;;19.70;12.90;;;;;;;3.11;85.58;97850.89;107688;1270;58964;-67
2021/12/31 05:25:51;;;;;;;24.10;14.50;;;;;;;3.12;85.68;97854.84;107824;1267;59245;-67
2021/12/31 05:28:21;;;;;;;31.40;18.20;;;;;;;3.10;85.64;97857.81;107885;1267;69745;-69
2021/12/31 05:30:50;;;;;;;23.30;14.70;;;;;;;3.08;86.06;97855.47;107775;1267;67703;-69
2021/12/31 05:33:19;;;;;;;37.30;21.40;;;;;;;3.08;86.21;97862.54;107782;1267;69275;-67
2021/12/31 05:35:48;;;;;;;26.70;17.60;;;;;;;3.08;86.06;97853.73;107779;1267;58875;-68
2021/12/31 05:38:17;;;;;;;19.10;10.50;;;;;;;3.09;85.83;97852.33;107762;1269;58876;-68
2021/12/31 05:40:46;;;;;;;23.40;14.30;;;;;;;3.10;85.59;97845.41;107711;1269;69818;-67
2021/12/31 05:43:16;;;;;;;20.10;11.70;;;;;;;3.11;85.59;97840.39;107836;1267;68052;-68
2021/12/31 05:45:45;;;;;;;19.00;10.80;;;;;;;3.11;85.90;97841.24;107690;1266;69435;-69
2021/12/31 05:48:24;;;;;;;32.60;19.00;;;;;;;3.12;85.55;97843.46;107850;1267;58928;-69
2021/12/31 05:50:53;;;;;;;21.00;13.20;;;;;;;3.10;86.00;97851.42;107626;1270;58878;-69
2021/12/31 05:53:23;;;;;;;25.30;16.80;;;;;;;3.11;86.12;97854.18;107776;1269;70922;-69
2021/12/31 05:55:52;;;;;;;21.80;13.70;;;;;;;3.11;86.03;97847.45;107869;1266;67954;-68
2021/12/31 05:58:22;;;;;;;25.00;16.00;;;;;;;3.13;85.99;97844.98;107863;1267;68632;-69
2021/12/31 06:00:51;;;;;;;34.00;20.60;;;;;;;3.13;86.09;97843.39;107869;1267;58881;-68
2021/12/31 06:03:20;;;;;;;16.90;10.30;;;;;;;3.13;86.10;97843.55;107872;1267;58822;-68
2021/12/31 06:05:50;;;;;;;19.30;11.70;;;;;;;3.15;85.86;97840.94;107849;1267;70696;-69
2021/12/31 06:08:19;;;;;;;23.70;14.10;;;;;;;3.16;85.64;97840.89;107942;1267;68828;-69
2021/12/31 06:10:48;;;;;;;20.50;13.30;;;;;;;3.16;85.67;97846.23;107924;1267;68658;-69
2021/12/31 06:13:18;;;;;;;34.00;20.10;;;;;;;3.17;85.58;97853.42;107820;1265;58918;-67
2021/12/31 06:15:55;;;;;;;25.80;15.80;;;;;;;3.16;85.79;97854.48;107931;1267;59176;-70
2021/12/31 06:18:28;;;;;;;26.60;15.70;;;;;;;3.16;85.92;97852.59;107715;1270;70746;-69
2021/12/31 06:20:57;;;;;;;32.60;20.80;;;;;;;3.17;86.30;97862.40;107835;1269;67881;-69
2021/12/31 06:23:26;;;;;;;44.30;27.30;;;;;;;3.18;86.13;97864.75;107681;1267;69424;-69
2021/12/31 06:25:56;;;;;;;39.40;22.50;;;;;;;3.19;86.24;97868.16;107896;1270;58929;-66
2021/12/31 06:28:26;;;;;;;36.30;21.10;;;;;;;3.21;86.07;97868.09;107923;1267;58926;-67
2021/12/31 06:30:55;;;;;;;25.10;14.10;;;;;;;3.24;85.98;97868.69;107891;1267;70892;-68
2021/12/31 06:33:24;;;;;;;39.90;25.30;;;;;;;3.27;85.89;97870.62;107901;1267;67901;-67
2021/12/31 06:35:53;;;;;;;32.90;21.80;;;;;;;3.28;86.28;97876.28;107915;1267;69537;-67
2021/12/31 06:38:22;;;;;;;37.40;25.50;;;;;;;3.27;86.18;97878.70;107893;1267;58831;-67
2021/12/31 06:40:51;;;;;;;43.60;28.30;;;;;;;3.26;86.20;97876.84;107855;1270;58866;-67
2021/12/31 06:43:20;;;;;;;31.10;21.40;;;;;;;3.27;86.32;97874.40;107848;1267;70999;-68
2021/12/31 06:45:49;;;;;;;41.60;26.70;;;;;;;3.29;85.98;97875.71;107885;1267;68760;-68
2021/12/31 06:48:18;;;;;;;24.90;16.70;;;;;;;3.31;85.94;97878.39;107683;1270;68739;-67
2021/12/31 06:50:46;;;;;;;28.20;19.20;;;;;;;3.33;85.82;97876.78;107853;1267;58957;-66
2021/12/31 06:53:15;;;;;;;26.40;16.70;;;;;;;3.35;86.23;97876.54;107919;1267;58844;-68
2021/12/31 06:55:44;;;;;;;24.30;13.90;;;;;;;3.37;86.20;97884.23;107836;1267;70773;-68
2021/12/31 06:58:13;;;;;;;23.00;14.40;;;;;;;3.40;86.02;97886.02;107823;1267;67582;-69
2021/12/31 07:00:42;;;;;;;21.40;13.90;;;;;;;3.42;86.02;97881.45;107859;1269;69539;-66
2021/12/31 07:03:13;;;;;;;22.50;14.50;;;;;;;3.46;85.93;97880.11;107785;1269;58950;-69
2021/12/31 07:05:45;;;;;;;22.40;14.90;;;;;;;3.49;85.77;97878.95;107772;1270;58919;-68
2021/12/31 07:08:14;;;;;;;21.60;13.00;;;;;;;3.51;85.73;97874.90;107928;1267;71305;-66
2021/12/31 07:10:43;;;;;;;22.10;14.30;;;;;;;3.55;85.51;97878.04;107856;1267;68600;-68
2021/12/31 07:13:12;;;;;;;27.30;17.30;;;;;;;3.57;86.07;97883.14;107827;1267;70100;-67
2021/12/31 07:15:44;;;;;;;20.40;13.50;;;;;;;3.64;86.00;97882.04;107838;1267;58938;-67
2021/12/31 07:18:15;;;;;;;28.50;18.10;;;;;;;3.67;85.72;97878.99;107943;1267;59304;-66
2021/12/31 07:20:45;;;;;;;34.10;22.60;;;;;;;3.70;85.93;97878.52;107859;1268;71330;-67
2021/12/31 07:23:16;;;;;;;;;;;;;;;3.69;86.29;97874.77;107874;1269;68697;-67
2021/12/31 07:25:46;;;;;;;23.40;15.00;;;;;;;3.69;86.16;97875.46;107763;1270;69304;-69
2021/12/31 07:28:15;;;;;;;22.20;14.40;;;;;;;3.73;85.97;97876.33;107648;1269;58925;-67
2021/12/31 07:30:45;;;;;;;19.30;14.10;;;;;;;3.81;85.85;97876.38;107769;1266;58934;-66
2021/12/31 07:33:18;;;;;;;25.50;16.60;;;;;;;3.85;85.60;97873.13;107721;1269;70574;-79
2021/12/31 07:35:51;;;;;;;25.20;14.50;;;;;;;3.88;85.40;97871.80;107604;1270;68582;-69
2021/12/31 07:38:27;;;;;;;27.80;17.10;;;;;;;3.89;85.28;97873.48;107690;1269;67676;-67
2021/12/31 07:40:56;;;;;;;17.20;11.30;;;;;;;3.89;85.12;97874.52;107849;1267;58930;-69
2021/12/31 07:43:30;;;;;;;20.10;13.20;;;;;;;3.89;85.04;97875.89;107693;1270;58926;-70
2021/12/31 07:46:04;;;;;;;24.70;14.80;;;;;;;3.87;85.19;97880.63;107752;1270;70187;-67
2021/12/31 07:48:37;;;;;;;18.00;12.10;;;;;;;3.86;85.34;97878.27;107622;1270;68699;-70
2021/12/31 07:51:10;;;;;;;21.10;14.00;;;;;;;3.85;85.18;97877.27;107711;1269;69645;-70
2021/12/31 07:53:42;;;;;;;18.90;13.20;;;;;;;3.82;85.34;97881.67;107613;1270;58926;-68
2021/12/31 07:56:14;;;;;;;26.20;16.60;;;;;;;3.80;85.91;97877.80;107863;1269;58926;-67
2021/12/31 07:58:44;;;;;;;30.50;21.00;;;;;;;3.79;86.73;97878.52;107776;1269;70246;-67
2021/12/31 08:01:14;;;;;;;34.00;22.10;;;;;;;3.82;86.72;97883.90;107773;1269;66857;-68
2021/12/31 08:03:43;;;;;;;26.40;18.30;;;;;;;3.84;86.68;97887.11;107898;1267;69509;-67
2021/12/31 08:06:13;;;;;;;28.90;18.90;;;;;;;3.86;86.51;97888.93;107733;1270;58865;-65
2021/12/31 08:08:43;;;;;;;34.90;22.20;;;;;;;3.88;86.79;97889.89;107891;1267;58874;-66
2021/12/31 08:11:12;;;;;;;29.70;18.90;;;;;;;3.89;86.87;97889.70;107807;1268;71363;-68
2021/12/31 08:13:41;;;;;;;18.40;12.00;;;;;;;3.95;86.99;97887.56;107839;1267;68381;-67
2021/12/31 08:16:10;;;;;;;19.60;12.30;;;;;;;4.03;86.54;97890.02;107876;1267;68718;-67
2021/12/31 08:18:39;;;;;;;23.40;14.40;;;;;;;4.11;86.12;97892.80;107882;1267;58931;-67
2021/12/31 08:21:08;;;;;;;22.10;14.80;;;;;;;4.17;85.72;97888.08;107883;1267;58845;-67
2021/12/31 08:23:37;;;;;;;29.40;19.00;;;;;;;4.23;85.64;97885.59;107881;1267;70868;-67
2021/12/31 08:26:06;;;;;;;32.10;21.00;;;;;;;4.30;85.76;97883.94;107875;1267;68192;-66
2021/12/31 08:28:35;;;;;;;27.40;17.00;;;;;;;4.36;85.57;97884.73;107778;1267;68766;-66
2021/12/31 08:31:04;;;;;;;18.30;12.50;;;;;;;4.41;85.43;97887.49;107878;1267;59064;-67
2021/12/31 08:33:33;;;;;;;17.50;10.30;;;;;;;4.44;85.01;97887.02;107875;1267;58826;-68
2021/12/31 08:36:02;;;;;;;18.90;12.60;;;;;;;4.45;84.92;97887.30;107880;1267;71441;-66
2021/12/31 08:38:31;;;;;;;15.10;10.10;;;;;;;4.48;84.92;97888.92;107875;1267;68706;-68
2021/12/31 08:41:01;;;;;;;13.60;9.10;;;;;;;4.52;84.73;97888.05;107838;1266;68644;-69
2021/12/31 08:43:30;;;;;;;13.10;7.80;;;;;;;4.52;84.76;97889.92;107858;1267;58846;-69
2021/12/31 08:45:59;;;;;;;16.00;9.10;;;;;;;4.54;84.71;97891.26;107801;1267;58866;-67
2021/12/31 08:48:28;;;;;;;14.30;8.70;;;;;;;4.55;84.64;97892.73;107747;1267;71439;-66
2021/12/31 08:50:57;;;;;;;13.00;8.20;;;;;;;4.57;84.53;97886.45;107887;1270;67899;-69
2021/12/31 08:53:26;;;;;;;12.90;8.20;;;;;;;4.57;84.41;97885.59;107885;1267;69348;-68
2021/12/31 08:55:55;;;;;;;14.20;9.30;;;;;;;4.58;84.50;97883.82;107939;1267;58904;-67
2021/12/31 08:58:24;;;;;;;15.70;9.60;;;;;;;4.61;84.29;97879.77;107775;1267;58824;-68
2021/12/31 09:00:52;;;;;;;13.70;9.00;;;;;;;4.62;84.39;97880.22;107779;1269;70608;-66
2021/12/31 09:03:22;;;;;;;19.30;13.40;;;;;;;4.66;84.72;97877.15;107735;1269;68457;-67
2021/12/31 09:05:52;;;;;;;18.80;12.50;;;;;;;4.70;85.10;97880.57;107823;1267;68504;-67
2021/12/31 09:08:22;;;;;;;21.00;14.10;;;;;;;4.76;84.75;97880.17;107619;1267;205151;-69
2021/12/31 09:10:52;;;;;;;21.20;13.60;;;;;;;4.79;84.66;97880.39;107877;1269;58873;-67
2021/12/31 09:13:21;;;;;;;15.80;10.20;;;;;;;4.82;84.75;97884.23;107737;1269;71429;-67
2021/12/31 09:15:50;;;;;;;14.10;10.60;;;;;;;4.85;84.60;97889.95;107852;1266;67838;-68
2021/12/31 09:18:19;;;;;;;12.40;8.60;;;;;;;4.87;84.64;97889.05;107907;1267;68041;-66
2021/12/31 09:20:49;;;;;;;11.30;7.30;;;;;;;4.88;84.50;97887.23;107803;1267;58895;-66
2021/12/31 09:23:18;;;;;;;17.20;10.70;;;;;;;4.89;84.33;97890.30;107947;1266;58891;-68
2021/12/31 09:25:49;;;;;;;12.80;9.10;;;;;;;4.90;84.49;97882.14;107847;1267;69871;-68
2021/12/31 09:28:18;;;;;;;14.50;9.70;;;;;;;4.92;84.28;97885.73;107897;1267;67810;-67
2021/12/31 09:30:47;;;;;;;11.80;8.60;;;;;;;4.94;84.35;97881.30;107861;1267;69406;-67
2021/12/31 09:33:16;;;;;;;11.00;7.30;;;;;;;4.99;84.32;97880.91;107616;1270;58946;-67
2021/12/31 09:35:45;;;;;;;11.20;8.30;;;;;;;5.04;84.15;97873.59;107878;1267;58883;-69
2021/12/31 09:38:14;;;;;;;7.80;5.30;;;;;;;5.07;84.03;97872.63;107696;1268;70745;-68
2021/12/31 09:40:43;;;;;;;11.10;7.20;;;;;;;5.09;83.94;97871.33;107911;1267;67850;-67
2021/12/31 09:43:12;;;;;;;17.00;11.00;;;;;;;5.06;84.12;97868.70;107996;1266;67920;-66
2021/12/31 09:45:44;;;;;;;13.40;8.20;;;;;;;5.01;84.44;97866.32;107896;1267;58859;-67
2021/12/31 09:48:16;;;;;;;18.00;12.30;;;;;;;5.05;84.44;97862.48;107999;1267;58917;-67
2021/12/31 09:50:47;;;;;;;16.80;10.30;;;;;;;5.08;84.07;97864.44;107870;1267;69793;-68
2021/12/31 09:53:18;;;;;;;11.40;8.10;;;;;;;5.12;84.12;97859.81;107878;1267;69459;-66
2021/12/31 09:55:52;;;;;;;11.60;7.90;;;;;;;5.17;84.12;97857.32;107846;1267;68289;-68
2021/12/31 09:58:25;;;;;;;12.10;7.50;;;;;;;5.23;83.97;97857.08;107918;1267;58877;-68
2021/12/31 10:01:01;;;;;;;10.80;7.10;;;;;;;5.26;84.13;97860.19;107725;1270;58976;-67
2021/12/31 10:03:33;;;;;;;14.50;9.50;;;;;;;5.27;83.46;97863.13;107902;1266;68991;-67
2021/12/31 10:06:06;;;;;;;13.20;10.20;;;;;;;5.21;83.50;97856.64;107857;1267;67365;-67
2021/12/31 10:08:43;;;;;;;14.20;9.10;;;;;;;5.18;83.38;97852.79;107880;1267;69467;-67
2021/12/31 10:11:22;;;;;;;13.30;9.20;;;;;;;5.15;83.48;97851.91;107851;1267;58878;-68
2021/12/31 10:13:58;;;;;;;13.60;7.00;;;;;;;5.14;83.59;97850.22;107878;1267;58818;-69
2021/12/31 10:16:31;;;;;;;8.50;6.30;;;;;;;5.17;83.63;97846.63;107870;1269;70654;-66
2021/12/31 10:19:10;;;;;;;14.00;9.70;;;;;;;5.22;83.75;97845.52;107798;1269;66806;-68
2021/12/31 10:21:41;;;;;;;13.70;8.80;;;;;;;5.28;83.64;97837.83;107751;1269;69584;-67
2021/12/31 10:24:37;;;;;;;15.00;9.90;;;;;;;5.31;83.29;97838.04;107862;1269;59352;-68
2021/12/31 10:27:12;;;;;;;13.20;9.30;;;;;;;5.28;83.48;97833.34;107834;1267;58873;-68
2021/12/31 10:29:54;;;;;;;12.80;8.60;;;;;;;5.30;83.34;97830.67;107812;1267;70786;-68
2021/12/31 10:32:29;;;;;;;10.70;8.10;;;;;;;5.31;83.54;97825.40;107817;1269;67814;-67
2021/12/31 10:35:19;;;;;;;13.30;8.90;;;;;;;5.33;83.71;97828.28;107783;1269;69400;-68
2021/12/31 10:38:01;;;;;;;11.30;7.80;;;;;;;5.31;83.64;97832.32;107769;1267;58907;-67
2021/12/31 10:40:40;;;;;;;17.30;11.60;;;;;;;5.31;83.82;97833.38;107955;1269;58860;-69
2021/12/31 10:43:21;;;;;;;17.10;11.20;;;;;;;5.34;83.71;97835.98;107957;1269;70808;-66
2021/12/31 10:46:07;;;;;;;11.60;8.00;;;;;;;5.39;83.63;97835.78;107816;1270;68046;-67
2021/12/31 10:48:48;;;;;;;9.00;6.20;;;;;;;5.45;83.93;97839.49;107847;1267;70142;-67
2021/12/31 10:51:39;;;;;;;12.50;7.60;;;;;;;5.51;83.43;97840.23;107872;1267;59209;-69
2021/12/31 10:56:59;;;;;;;12.80;10.00;;;;;;;5.57;83.53;97851.38;107842;1269;70747;-67
2021/12/31 10:59:33;;;;;;;11.20;8.00;;;;;;;5.58;83.46;97852.37;107906;1269;68970;-68
2021/12/31 11:02:03;;;;;;;16.20;11.60;;;;;;;5.62;83.49;97853.40;107960;1268;69423;-67
2021/12/31 11:04:35;;;;;;;14.20;9.90;;;;;;;5.62;83.19;97852.88;107840;1268;58945;-67
2021/12/31 11:07:07;;;;;;;13.20;9.10;;;;;;;5.57;82.81;97843.43;107847;1269;58857;-68
2021/12/31 11:09:36;;;;;;;13.90;10.10;;;;;;;5.44;82.67;97833.48;107850;1269;69942;-66
2021/12/31 11:12:05;;;;;;;14.10;9.90;;;;;;;5.24;83.51;97829.39;107817;1269;67888;-67
2021/12/31 11:14:36;;;;;;;12.80;8.80;;;;;;;5.06;84.75;97822.38;107866;1269;68819;-68
2021/12/31 11:17:05;;;;;;;13.20;10.20;;;;;;;5.02;85.17;97823.92;107827;1269;58877;-68
2021/12/31 11:19:39;;;;;;;15.70;9.20;;;;;;;4.95;85.29;97828.21;107802;1269;58887;-67
2021/12/31 11:22:09;;;;;;;15.70;9.80;;;;;;;4.89;85.25;97829.02;107957;1270;70741;-68
2021/12/31 11:24:38;;;;;;;10.80;7.70;;;;;;;4.84;85.56;97827.33;107933;1269;68519;-65
2021/12/31 11:27:26;;;;;;;10.90;7.60;;;;;;;4.83;85.73;97830.45;107851;1265;68651;-66
2021/12/31 11:29:56;;;;;;;11.30;6.70;;;;;;;4.87;85.48;97830.84;107863;1267;58881;-68
2021/12/31 11:33:03;;;;;;;13.00;8.00;;;;;;;4.91;85.36;97829.29;107659;1267;58865;-67
2021/12/31 11:35:37;;;;;;;10.50;7.10;;;;;;;4.97;85.25;97821.56;107823;1269;70462;-68
2021/12/31 11:38:29;;;;;;;6.50;5.00;;;;;;;5.02;85.06;97818.75;107839;1269;67921;-67
2021/12/31 11:41:14;;;;;;;11.20;7.70;;;;;;;5.10;84.82;97818.75;107759;1269;70070;-68
2021/12/31 11:43:44;;;;;;;8.60;5.50;;;;;;;5.16;84.70;97822.64;107705;1270;58927;-67
2021/12/31 11:46:15;;;;;;;8.40;5.10;;;;;;;5.23;84.65;97819.06;107907;1268;58915;-66